Weather History for Holyoke AP, Holyoke, CO, CO

Change the Weather History Date:

Friday, February 14, 2014

  Actual Average Record
Temperature  
Mean Temperature 40 °F -  
Max Temperature 46 °F 46 °F 46 °F (2014)
Min Temperature 33 °F 20 °F 33 °F (2014)
Degree Days  
Heating Degree Days 26    
Moisture  
Dew Point 28 °F    
Average Humidity 65    
Maximum Humidity 87    
Minimum Humidity 37    
Precipitation  
Precipitation 0.00 in - - ()
Sea Level Pressure  
Sea Level Pressure 29.94 in    
Wind  
Wind Speed 15 mph (WNW)    
Max Wind Speed 22 mph    
Max Gust Speed 32 mph    
Visibility 10 miles    
Events Rain    
Averages and records for this station are not official NWS values.
T = Trace of Precipitation, MM = Missing Value Source: NWS Daily Summary

Daily Weather History Graph

Daily Weather History Graph

Search for Another Location

Airport:

Trip Planner

Search our weather history database for the weather conditions in past years. The results will help you decide how hot, cold, wet, or windy it might be!

Date:

Astronomy

Feb. 14, 2014 Rise Set
Actual Time 6:44 AM MST 5:23 PM MST
Civil Twilight 6:15 AM MST 5:51 PM MST
Nautical Twilight 5:43 AM MST 6:23 PM MST
Astronomical Twilight 5:12 AM MST 6:54 PM MST
Moon 5:29 PM MST (2/14) 6:11 AM MST (2/14)
Length of Visible Light 11h 35m
Length of Day
10h 39m
Full, 100% of the Moon is Illuminated
Feb 14
Full
Feb 14
Full
Feb 22
Last Quarter
Mar 1
New
Mar 8
First Quarter

Hourly Weather History & Observations

Time (MST) Temp. Windchill Dew Point Humidity Pressure Visibility Wind Dir Wind Speed Gust Speed Precip Events Conditions
12:15 AM 37.4 °F 26.9 °F 33.8 °F 87% 29.83 in 10.0 mi NNW 20.7 mph 26.5 mph N/A   Scattered Clouds
12:35 AM 37.4 °F 27.5 °F 33.8 °F 87% 29.82 in 10.0 mi NNW 18.4 mph 24.2 mph N/A   Mostly Cloudy
12:55 AM 37.4 °F 27.2 °F 33.8 °F 87% 29.84 in 10.0 mi NNW 19.6 mph 25.3 mph N/A   Overcast
1:15 AM 37.4 °F 28.2 °F 33.8 °F 87% 29.86 in 10.0 mi NW 16.1 mph 23.0 mph N/A Rain Light Rain
1:35 AM 37.4 °F 28.9 °F 32.0 °F 81% 29.88 in 10.0 mi NW 13.8 mph - N/A   Overcast
1:55 AM 37.4 °F 29.8 °F 32.0 °F 81% 29.87 in 10.0 mi NW 11.5 mph 18.4 mph N/A   Overcast
2:15 AM 37.4 °F 27.5 °F 32.0 °F 81% 29.89 in 10.0 mi NW 18.4 mph 26.5 mph N/A   Overcast
2:35 AM 37.4 °F 26.6 °F 32.0 °F 81% 29.89 in 10.0 mi NW 21.9 mph 32.2 mph N/A   Overcast
2:55 AM 37.4 °F 28.2 °F 32.0 °F 81% 29.88 in 10.0 mi NW 16.1 mph 27.6 mph N/A   Overcast
3:15 AM 37.4 °F 26.9 °F 32.0 °F 81% 29.89 in 10.0 mi WNW 20.7 mph 25.3 mph N/A   Overcast
3:35 AM 37.4 °F 27.8 °F 33.8 °F 87% 29.89 in 10.0 mi WNW 17.3 mph 23.0 mph N/A   Overcast
3:55 AM 37.4 °F 27.5 °F 32.0 °F 81% 29.89 in 10.0 mi West 18.4 mph 23.0 mph N/A   Overcast
4:15 AM 37.4 °F 27.5 °F 32.0 °F 81% 29.91 in 10.0 mi WNW 18.4 mph 26.5 mph N/A   Overcast
4:35 AM 37.4 °F 27.5 °F 28.4 °F 70% 29.92 in 10.0 mi WNW 18.4 mph 27.6 mph N/A   Overcast
4:55 AM 37.4 °F 27.5 °F 26.6 °F 65% 29.92 in 10.0 mi WNW 18.4 mph 26.5 mph N/A   Overcast
5:15 AM 37.4 °F 28.5 °F 28.4 °F 70% 29.94 in 10.0 mi WNW 15.0 mph 25.3 mph N/A   Mostly Cloudy
5:35 AM 37.4 °F 28.2 °F 28.4 °F 70% 29.94 in 10.0 mi NW 16.1 mph 23.0 mph N/A   Mostly Cloudy
5:55 AM 37.4 °F 28.9 °F 28.4 °F 70% 29.94 in 10.0 mi WNW 13.8 mph 17.3 mph N/A   Scattered Clouds
6:15 AM 37.4 °F 28.2 °F 28.4 °F 70% 29.95 in 10.0 mi WNW 16.1 mph 19.6 mph N/A   Clear
6:35 AM 35.6 °F 25.9 °F 26.6 °F 70% 29.96 in 10.0 mi NW 16.1 mph 19.6 mph N/A   Clear
6:55 AM 33.8 °F 24.8 °F 24.8 °F 70% 29.97 in 10.0 mi NW 12.7 mph 18.4 mph N/A   Clear
7:15 AM 35.6 °F 26.2 °F 24.8 °F 65% 29.98 in 10.0 mi NW 15.0 mph 18.4 mph N/A   Clear
7:35 AM 35.6 °F 26.2 °F 24.8 °F 65% 29.99 in 10.0 mi NW 15.0 mph - N/A   Clear
7:55 AM 37.4 °F 28.9 °F 28.4 °F 70% 30.01 in 10.0 mi NW 13.8 mph 20.7 mph N/A   Clear
8:15 AM 37.4 °F 27.8 °F 26.6 °F 65% 30.02 in 10.0 mi NW 17.3 mph 20.7 mph N/A   Clear
8:35 AM 37.4 °F 28.5 °F 26.6 °F 65% 30.03 in 10.0 mi NW 15.0 mph 21.9 mph N/A   Clear
8:55 AM 41.0 °F 33.1 °F 26.6 °F 57% 30.03 in 10.0 mi NW 15.0 mph 23.0 mph N/A   Clear
9:15 AM 41.0 °F 32.2 °F 26.6 °F 57% 30.03 in 10.0 mi NNW 18.4 mph - N/A   Clear
9:35 AM 41.0 °F 31.9 °F 24.8 °F 53% 30.04 in 10.0 mi NNW 19.6 mph 24.2 mph N/A   Clear
9:55 AM 42.8 °F 34.3 °F 24.8 °F 49% 30.05 in 10.0 mi NW 19.6 mph 28.8 mph N/A   Clear
10:15 AM 42.8 °F 34.3 °F 24.8 °F 49% 30.05 in 10.0 mi NNW 19.6 mph 24.2 mph N/A   Clear
10:35 AM 42.8 °F 34.3 °F 23.0 °F 46% 30.04 in 10.0 mi NNW 19.6 mph 25.3 mph N/A   Clear
10:55 AM 42.8 °F 35.4 °F 23.0 °F 46% 30.04 in 10.0 mi NW 15.0 mph 24.2 mph N/A   Clear
11:15 AM 44.6 °F 38.1 °F 26.6 °F 49% 30.04 in 10.0 mi NW 13.8 mph 24.2 mph N/A   Clear
11:35 AM 44.6 °F 38.1 °F 24.8 °F 46% 30.04 in 10.0 mi NW 13.8 mph 18.4 mph N/A   Clear
11:55 AM 46.4 °F 40.4 °F 24.8 °F 43% 30.03 in 10.0 mi NW 13.8 mph 21.9 mph N/A   Clear
12:15 PM 46.4 °F 40.4 °F 24.8 °F 43% 30.03 in 10.0 mi NW 13.8 mph - N/A   Clear
12:35 PM 46.4 °F 39.5 °F 24.8 °F 43% 30.03 in 10.0 mi NW 17.3 mph 20.7 mph N/A   Clear
12:55 PM 46.4 °F 40.7 °F 23.0 °F 40% 30.02 in 10.0 mi NNW 12.7 mph - N/A   Clear
1:15 PM 46.4 °F 40.1 °F 23.0 °F 40% 30.01 in 10.0 mi NNW 15.0 mph - N/A   Clear
1:35 PM 46.4 °F 40.1 °F 23.0 °F 40% 30.01 in 10.0 mi NW 15.0 mph 19.6 mph N/A   Clear
1:55 PM 46.4 °F 40.7 °F 23.0 °F 40% 30.00 in 10.0 mi NNW 12.7 mph - N/A   Clear
2:15 PM 46.4 °F 41.1 °F 23.0 °F 40% 29.99 in 10.0 mi North 11.5 mph - N/A   Clear
2:35 PM 46.4 °F 41.1 °F 24.8 °F 43% 29.97 in 10.0 mi North 11.5 mph - N/A   Clear
2:55 PM 46.4 °F 41.9 °F 23.0 °F 40% 29.97 in 10.0 mi North 9.2 mph - N/A   Clear
3:15 PM 46.4 °F 42.9 °F 21.2 °F 37% 29.97 in 10.0 mi North 6.9 mph - N/A   Clear
3:35 PM 44.6 °F 42.2 °F 21.2 °F 39% 29.98 in 10.0 mi NNW 4.6 mph - N/A   Scattered Clouds
3:55 PM 42.8 °F 41.1 °F 21.2 °F 42% 29.98 in 10.0 mi North 3.5 mph - N/A   Mostly Cloudy
4:15 PM 42.8 °F - 21.2 °F 42% 29.97 in 10.0 mi Calm Calm - N/A   Overcast
4:35 PM 41.0 °F 39.0 °F 28.4 °F 61% 29.96 in 10.0 mi SE 3.5 mph - N/A   Overcast
4:55 PM 39.2 °F 34.2 °F 30.2 °F 70% 29.96 in 10.0 mi South 6.9 mph - N/A   Overcast
5:15 PM 37.4 °F 32.1 °F 30.2 °F 75% 29.95 in 10.0 mi South 6.9 mph - N/A   Overcast
5:35 PM 37.4 °F 31.4 °F 30.2 °F 75% 29.94 in 10.0 mi SSW 8.1 mph - N/A   Overcast
5:55 PM 37.4 °F 31.4 °F 30.2 °F 75% 29.94 in 10.0 mi South 8.1 mph - N/A   Overcast
6:15 PM 37.4 °F 30.8 °F 30.2 °F 75% 29.94 in 10.0 mi SSW 9.2 mph - N/A   Overcast
6:35 PM 37.4 °F 31.4 °F 28.4 °F 70% 29.95 in 10.0 mi SW 8.1 mph - N/A   Overcast
6:55 PM 37.4 °F 30.8 °F 28.4 °F 70% 29.94 in 10.0 mi SSW 9.2 mph - N/A   Overcast
7:15 PM 37.4 °F 31.4 °F 28.4 °F 70% 29.94 in 10.0 mi SSW 8.1 mph - N/A   Overcast
7:35 PM 37.4 °F 31.4 °F 30.2 °F 75% 29.92 in 10.0 mi South 8.1 mph - N/A   Overcast
7:55 PM 37.4 °F 32.1 °F 30.2 °F 75% 29.92 in 10.0 mi SSW 6.9 mph - N/A   Overcast
8:15 PM 37.4 °F 30.8 °F 30.2 °F 75% 29.90 in 10.0 mi South 9.2 mph - N/A   Overcast
8:35 PM 37.4 °F 31.4 °F 30.2 °F 75% 29.90 in 10.0 mi South 8.1 mph - N/A   Overcast
8:55 PM 37.4 °F 30.3 °F 30.2 °F 75% 29.89 in 10.0 mi South 10.4 mph - N/A   Overcast
9:15 PM 37.4 °F 31.4 °F 30.2 °F 75% 29.89 in 10.0 mi South 8.1 mph - N/A   Overcast
9:35 PM 37.4 °F 31.4 °F 30.2 °F 75% 29.87 in 10.0 mi South 8.1 mph - N/A   Overcast
9:55 PM 37.4 °F 30.3 °F 30.2 °F 75% 29.86 in 10.0 mi South 10.4 mph - N/A   Overcast
10:15 PM 37.4 °F 29.3 °F 30.2 °F 75% 29.85 in 10.0 mi SSW 12.7 mph - N/A   Mostly Cloudy
10:35 PM 37.4 °F 30.3 °F 30.2 °F 75% 29.83 in 10.0 mi South 10.4 mph - N/A   Mostly Cloudy
10:55 PM 41.0 °F 32.2 °F 32.0 °F 70% 29.82 in 10.0 mi SSW 18.4 mph - N/A   Overcast
11:15 PM 41.0 °F 32.8 °F 32.0 °F 70% 29.82 in 10.0 mi SSW 16.1 mph - N/A   Overcast
11:35 PM 41.0 °F 32.5 °F 32.0 °F 70% 29.81 in 10.0 mi SSW 17.3 mph - N/A   Overcast
11:55 PM 41.0 °F 32.2 °F 32.0 °F 70% 29.82 in 10.0 mi SW 18.4 mph 25.3 mph N/A   Overcast